Time;durP1;ratioP1;P1;durP2;ratioP2;P2;SDS_P1;SDS_P2;PMS_P1;PMS_P2;Temp;Humidity;BMP_temperature;BMP_pressure;BME280_temperature;BME280_humidity;BME280_pressure;Samples;Min_cycle;Max_cycle;Signal;HPM_P1;HPM_P2
2022/09/17 00:00:18;;;;;;;5.22;0.80;;;8.80;99.90;;;8.19;100.00;96887.03;5024079;28;20067;-39
2022/09/17 00:02:45;;;;;;;3.58;0.73;;;8.80;99.90;;;8.07;100.00;96873.47;5030345;28;20409;-39
2022/09/17 00:05:11;;;;;;;3.35;0.90;;;8.80;99.90;;;8.14;100.00;96883.69;5023357;28;20043;-38
2022/09/17 00:07:37;;;;;;;1.23;0.73;;;8.80;99.90;;;8.12;100.00;96889.94;5027632;28;20041;-39
2022/09/17 00:10:04;;;;;;;3.15;0.80;;;8.80;99.90;;;8.10;100.00;96881.25;5026581;28;20058;-39
2022/09/17 00:12:31;;;;;;;1.98;0.90;;;8.70;99.90;;;8.06;100.00;96893.63;5028178;28;20036;-39
2022/09/17 00:14:57;;;;;;;2.38;0.75;;;8.70;99.90;;;7.97;100.00;96889.56;5020908;28;20513;-39
2022/09/17 00:17:23;;;;;;;2.60;0.80;;;8.60;99.90;;;7.75;100.00;96862.31;5022795;28;20134;-39
2022/09/17 00:19:49;;;;;;;2.50;0.70;;;8.60;99.90;;;7.95;100.00;96890.50;5030542;28;20036;-39
2022/09/17 00:22:15;;;;;;;3.45;0.90;;;8.60;99.90;;;7.89;100.00;96886.31;5033729;28;20492;-39
2022/09/17 00:24:40;;;;;;;0.80;0.65;;;8.60;99.90;;;7.94;100.00;96891.44;5024839;28;20041;-39
2022/09/17 00:27:06;;;;;;;2.97;0.90;;;8.60;99.90;;;7.87;100.00;96882.91;5026217;28;20448;-39
2022/09/17 00:29:32;;;;;;;2.97;0.80;;;8.60;99.90;;;7.84;100.00;96883.88;5039406;28;20037;-39
2022/09/17 00:31:58;;;;;;;2.08;0.65;;;8.60;99.90;;;7.80;100.00;96863.88;5024737;28;20377;-39
2022/09/17 00:34:24;;;;;;;1.02;0.93;;;8.70;99.90;;;7.97;100.00;96883.47;5029394;28;20041;-39
2022/09/17 00:36:49;;;;;;;2.13;0.75;;;8.60;99.90;;;8.06;100.00;96888.38;5031825;28;20052;-39
2022/09/17 00:39:16;;;;;;;1.48;0.95;;;8.70;99.90;;;8.11;100.00;96890.84;5025054;28;20025;-39
2022/09/17 00:41:42;;;;;;;2.80;0.68;;;8.80;99.90;;;8.19;100.00;96900.16;5024550;28;20037;-39
2022/09/17 00:44:43;;;;;;;2.45;0.90;;;8.80;99.90;;;8.22;100.00;96892.19;5028300;28;20710;-39
2022/09/17 00:47:34;;;;;;;2.08;0.82;;;8.90;99.90;;;8.27;100.00;96889.38;5013875;28;20052;-39
2022/09/17 00:50:11;;;;;;;3.97;1.00;;;8.90;99.90;;;8.28;100.00;96885.84;5017651;28;20048;-39
2022/09/17 00:52:45;;;;;;;1.08;0.80;;;8.90;99.90;;;8.20;100.00;96886.13;5031587;28;20029;-39
2022/09/17 00:55:23;;;;;;;2.60;1.00;;;8.90;99.90;;;8.14;100.00;96886.31;5022070;28;20059;-40
2022/09/17 00:57:54;;;;;;;4.57;1.13;;;8.80;99.90;;;8.06;100.00;96895.38;5022145;28;20032;-39
2022/09/17 01:00:21;;;;;;;1.67;0.98;;;8.70;99.90;;;7.96;100.00;96897.47;5024083;28;20040;-39
2022/09/17 01:02:47;;;;;;;4.85;0.80;;;8.60;99.90;;;7.89;100.00;96902.09;5032631;28;20787;-39
2022/09/17 01:05:15;;;;;;;1.23;0.82;;;8.50;99.90;;;7.74;100.00;96892.13;5019204;28;20702;-39
2022/09/17 01:08:30;;;;;;;2.35;1.00;;;8.50;99.90;;;7.72;100.00;96907.06;5023069;28;20041;-39
2022/09/17 01:11:22;;;;;;;2.38;0.82;;;8.40;99.90;;;7.65;100.00;96909.03;5023005;28;20060;-39
2022/09/17 01:14:31;;;;;;;4.45;1.10;;;8.30;99.90;;;7.59;100.00;96910.09;5022241;28;20040;-39
2022/09/17 01:18:12;;;;;;;3.45;1.30;;;8.30;99.90;;;7.52;100.00;96899.81;5040197;22;20096;-37
2022/09/17 01:21:07;;;;;;;3.58;1.25;;;8.20;99.90;;;7.52;100.00;96913.81;4922012;28;20082;-37
2022/09/17 01:24:02;;;;;;;5.50;1.35;;;8.20;99.90;;;7.53;100.00;96919.91;4980852;28;20569;-38
2022/09/17 01:27:24;;;;;;;4.63;1.02;;;8.20;99.90;;;7.52;100.00;96916.44;4982656;28;20076;-38
2022/09/17 01:30:04;;;;;;;2.90;1.08;;;8.20;99.90;;;7.50;100.00;96905.16;4983856;28;20471;-38
2022/09/17 01:32:51;;;;;;;3.15;1.00;;;8.20;99.90;;;7.60;100.00;96914.41;4985623;28;20358;-38
2022/09/17 01:35:31;;;;;;;2.10;1.10;;;8.30;99.90;;;7.69;100.00;96915.03;4985346;28;20038;-38
2022/09/17 01:38:22;;;;;;;3.80;1.08;;;8.30;99.90;;;7.74;100.00;96924.47;4975401;28;20545;-38
2022/09/17 01:41:02;;;;;;;4.35;1.40;;;8.40;99.90;;;7.82;100.00;96921.56;4982790;28;20030;-38
2022/09/17 01:43:50;;;;;;;5.35;1.40;;;8.50;99.90;;;7.91;100.00;96920.41;4982412;28;20092;-38
2022/09/17 01:46:25;;;;;;;4.28;1.80;;;8.60;99.90;;;7.96;100.00;96929.00;4993093;28;20065;-38
2022/09/17 01:48:57;;;;;;;3.45;1.15;;;8.60;99.90;;;8.05;100.00;96930.44;4981032;28;20060;-38
2022/09/17 01:51:26;;;;;;;3.13;0.90;;;8.70;99.90;;;8.06;100.00;96925.16;4984096;28;20030;-38
2022/09/17 01:54:06;;;;;;;3.00;1.35;;;8.80;99.90;;;8.18;100.00;96937.88;4981947;28;20060;-38
2022/09/17 01:57:06;;;;;;;3.80;1.35;;;8.80;99.90;;;8.27;100.00;96930.56;4980501;28;20073;-38
2022/09/17 01:59:53;;;;;;;3.58;1.30;;;8.90;99.90;;;8.29;100.00;96933.97;4977332;28;20165;-38
2022/09/17 02:02:32;;;;;;;2.78;1.27;;;9.00;99.90;;;8.32;100.00;96928.63;4978103;28;20282;-38
2022/09/17 02:05:12;;;;;;;5.30;1.20;;;9.00;99.90;;;8.39;100.00;96928.34;4986984;28;20287;-38
2022/09/17 02:07:48;;;;;;;3.20;1.20;;;9.10;99.90;;;8.42;100.00;96924.78;4995401;28;20624;-38
2022/09/17 02:10:20;;;;;;;1.92;1.08;;;9.10;99.90;;;8.33;100.00;96920.69;4979286;28;20310;-38
2022/09/17 02:12:55;;;;;;;3.88;1.10;;;9.00;99.90;;;8.29;100.00;96931.34;4981491;28;20046;-38
2022/09/17 02:15:28;;;;;;;4.30;1.20;;;8.90;99.90;;;8.19;100.00;96928.22;4978665;28;20561;-38
2022/09/17 02:18:24;;;;;;;2.42;1.05;;;8.80;99.90;;;8.12;100.00;96930.19;4984545;28;20066;-38
2022/09/17 02:21:07;;;;;;;3.55;1.38;;;8.80;99.90;;;8.03;100.00;96927.88;4981235;28;20046;-38
2022/09/17 02:23:42;;;;;;;3.10;1.23;;;8.70;99.90;;;7.97;100.00;96921.06;4983158;28;20056;-38
2022/09/17 02:26:14;;;;;;;3.22;1.35;;;8.60;99.90;;;7.97;100.00;96920.22;4980980;28;20033;-38
2022/09/17 02:29:14;;;;;;;7.07;1.33;;;8.60;99.90;;;7.99;100.00;96915.78;4979743;28;20072;-38
2022/09/17 02:31:40;;;;;;;4.25;1.35;;;8.70;99.90;;;7.95;100.00;96901.00;4982019;28;20422;-38
2022/09/17 02:34:07;;;;;;;2.97;1.08;;;8.70;99.90;;;8.12;100.00;96918.81;4982246;28;20037;-38
2022/09/17 02:36:34;;;;;;;5.43;1.30;;;8.80;99.90;;;8.10;100.00;96910.16;4993164;28;20761;-38
2022/09/17 02:39:02;;;;;;;3.30;1.30;;;8.80;99.90;;;8.20;100.00;96925.53;4980158;28;20029;-38
2022/09/17 02:41:53;;;;;;;3.88;1.10;;;8.90;99.90;;;8.23;100.00;96925.41;4974394;28;20053;-38
2022/09/17 02:44:45;;;;;;;7.60;1.48;;;8.90;99.90;;;8.29;100.00;96915.59;4991959;28;20446;-38
2022/09/17 02:47:45;;;;;;;2.38;1.02;;;8.90;99.90;;;8.25;100.00;96916.63;4971117;28;20519;-38
2022/09/17 02:50:31;;;;;;;3.60;1.10;;;8.90;99.90;;;8.27;100.00;96920.91;5005510;28;20038;-38
2022/09/17 02:53:37;;;;;;;5.15;1.52;;;8.90;99.90;;;8.07;100.00;96890.09;4983772;28;20163;-38
2022/09/17 02:56:38;;;;;;;3.65;0.88;;;8.80;99.90;;;8.08;100.00;96906.72;4988370;28;20037;-38
2022/09/17 02:59:23;;;;;;;2.33;1.15;;;8.70;99.90;;;7.97;100.00;96907.09;4979320;28;20105;-38
2022/09/17 03:02:15;;;;;;;5.63;1.73;;;8.60;99.90;;;7.88;100.00;96910.88;4993628;28;20034;-38
2022/09/17 03:04:41;;;;;;;4.68;1.08;;;8.50;99.90;;;7.79;100.00;96912.06;4979845;28;20394;-38
2022/09/17 03:07:10;;;;;;;4.10;1.20;;;8.50;99.90;;;7.72;100.00;96913.16;4976736;28;20050;-38
2022/09/17 03:09:36;;;;;;;3.75;1.10;;;8.40;99.90;;;7.63;100.00;96913.47;4983426;28;20037;-38
2022/09/17 03:12:03;;;;;;;2.25;1.25;;;8.30;99.90;;;7.56;100.00;96898.84;4987099;28;20041;-38
2022/09/17 03:14:28;;;;;;;2.90;1.15;;;8.30;99.90;;;7.57;100.00;96911.03;4982148;28;20041;-38
2022/09/17 03:16:54;;;;;;;3.60;1.30;;;8.20;99.90;;;7.48;100.00;96895.59;4991385;28;20038;-38
2022/09/17 03:19:20;;;;;;;1.90;0.90;;;8.20;99.90;;;7.45;100.00;96905.28;4986827;28;20606;-38
2022/09/17 03:21:45;;;;;;;5.25;1.10;;;8.10;99.90;;;7.37;100.00;96904.66;4987411;28;20502;-38
2022/09/17 03:24:11;;;;;;;4.38;1.33;;;8.10;99.90;;;7.35;100.00;96903.84;4976773;28;20044;-38
2022/09/17 03:26:38;;;;;;;4.38;1.30;;;8.10;99.90;;;7.34;100.00;96896.91;4980474;28;20037;-38
2022/09/17 03:29:04;;;;;;;1.90;1.10;;;8.00;99.90;;;7.34;100.00;96910.03;4983523;28;20130;-38
2022/09/17 03:31:30;;;;;;;5.65;1.50;;;8.00;99.90;;;7.37;100.00;96909.06;4986739;28;20307;-38
2022/09/17 03:33:57;;;;;;;3.92;1.35;;;8.10;99.90;;;7.40;100.00;96907.19;4988038;28;20033;-38
2022/09/17 03:36:23;;;;;;;5.97;1.48;;;8.10;99.90;;;7.40;100.00;96915.06;4984142;28;20533;-38
2022/09/17 03:38:56;;;;;;;4.43;1.58;;;8.10;99.90;;;7.40;100.00;96912.44;4983537;28;20030;-38
2022/09/17 03:41:22;;;;;;;6.63;1.20;;;8.10;99.90;;;7.33;100.00;96916.16;4976483;28;20033;-38
2022/09/17 03:43:47;;;;;;;3.00;1.20;;;8.10;99.90;;;7.30;100.00;96918.88;4977279;28;20076;-39
2022/09/17 03:46:13;;;;;;;3.78;1.48;;;8.00;99.90;;;7.28;100.00;96919.84;4983060;28;20033;-38
2022/09/17 03:48:39;;;;;;;3.30;1.23;;;8.00;99.90;;;7.16;100.00;96908.84;4981298;28;20072;-38
2022/09/17 03:51:05;;;;;;;2.47;1.05;;;7.90;99.90;;;7.15;100.00;96930.72;4982454;28;20034;-38
2022/09/17 03:53:32;;;;;;;3.20;1.10;;;7.90;99.90;;;7.10;100.00;96929.16;4978730;28;20628;-38
2022/09/17 03:56:03;;;;;;;5.07;1.20;;;7.80;99.90;;;7.13;100.00;96931.69;4980165;28;20041;-38
2022/09/17 03:58:30;;;;;;;5.80;1.40;;;7.80;99.90;;;7.06;100.00;96916.13;4982180;28;20068;-38
2022/09/17 04:00:56;;;;;;;4.78;1.65;;;7.80;99.90;;;7.15;100.00;96942.97;4980772;28;20029;-38
2022/09/17 04:03:27;;;;;;;5.70;1.45;;;7.80;99.90;;;7.15;100.00;96940.34;4981571;28;20049;-38
2022/09/17 04:05:53;;;;;;;3.63;1.20;;;7.80;99.90;;;7.18;100.00;96941.13;4978233;28;20124;-38
2022/09/17 04:11:31;;;;;;;3.40;1.52;;;7.90;99.90;;;7.24;100.00;96940.06;4978683;28;20553;-38
2022/09/17 04:13:57;;;;;;;8.20;1.50;;;7.90;99.90;;;7.31;100.00;96931.09;4976158;28;20030;-39
2022/09/17 04:16:23;;;;;;;5.28;1.73;;;8.00;99.90;;;7.35;100.00;96937.09;4978915;28;20026;-38
2022/09/17 04:18:49;;;;;;;6.55;1.40;;;8.00;99.90;;;7.37;100.00;96930.91;4978829;28;20040;-38
2022/09/17 04:21:14;;;;;;;4.25;1.20;;;8.10;99.90;;;7.42;100.00;96926.38;4978803;28;20036;-38
2022/09/17 04:23:40;;;;;;;14.40;1.52;;;8.10;99.90;;;7.35;100.00;96911.72;4981943;28;20964;-38
2022/09/17 04:26:06;;;;;;;7.70;1.40;;;8.10;99.90;;;7.45;100.00;96925.44;4976680;28;20300;-38
2022/09/17 04:28:32;;;;;;;3.78;1.30;;;8.10;99.90;;;7.26;100.00;96906.78;4975208;28;20038;-38
2022/09/17 04:30:57;;;;;;;6.40;1.30;;;8.10;99.90;;;7.32;100.00;96927.59;4978604;28;20109;-38
2022/09/17 04:33:23;;;;;;;8.65;1.42;;;8.00;99.90;;;7.36;100.00;96929.19;4987566;28;20061;-38
2022/09/17 04:35:49;;;;;;;4.63;1.90;;;8.00;99.90;;;7.42;100.00;96934.22;4983295;28;20422;-38
2022/09/17 04:38:17;;;;;;;3.65;1.48;;;8.10;99.90;;;7.44;100.00;96937.66;4982810;28;20793;-38
2022/09/17 04:40:45;;;;;;;10.05;1.20;;;8.10;99.90;;;7.50;100.00;96943.63;4975384;28;20041;-37
2022/09/17 04:43:11;;;;;;;4.05;1.00;;;8.20;99.90;;;7.56;100.00;96953.94;4978176;28;20041;-38
2022/09/17 04:45:37;;;;;;;5.53;1.30;;;8.20;99.90;;;7.61;100.00;96955.50;4972873;28;20046;-38
2022/09/17 04:48:03;;;;;;;5.97;1.30;;;8.30;99.90;;;7.72;100.00;96965.66;4978521;28;20045;-38
2022/09/17 04:50:29;;;;;;;5.63;1.67;;;8.30;99.90;;;7.71;100.00;96960.44;4976243;28;20034;-38
2022/09/17 04:52:55;;;;;;;4.22;1.35;;;8.40;99.90;;;7.75;100.00;96962.94;4981218;28;20055;-38
2022/09/17 04:55:21;;;;;;;6.57;1.65;;;8.40;99.90;;;7.75;100.00;96955.06;4978262;28;20491;-38
2022/09/17 04:57:48;;;;;;;6.75;1.60;;;8.40;99.90;;;7.76;100.00;96948.88;4983832;28;20040;-38
2022/09/17 05:00:16;;;;;;;6.70;1.70;;;8.50;99.90;;;7.79;100.00;96955.81;4976175;28;20080;-37
2022/09/17 05:02:47;;;;;;;9.10;1.63;;;8.50;99.90;;;7.88;100.00;96967.75;4973993;28;20064;-38
2022/09/17 05:05:14;;;;;;;9.55;1.63;;;8.50;99.90;;;7.89;100.00;96980.84;4976967;28;20029;-38
2022/09/17 05:07:41;;;;;;;7.85;1.48;;;8.60;99.90;;;7.91;100.00;96975.53;4982901;28;20030;-37
2022/09/17 05:10:08;;;;;;;7.90;1.60;;;8.60;99.90;;;7.95;100.00;96985.03;4985169;28;20041;-38
2022/09/17 05:12:34;;;;;;;7.93;1.70;;;8.60;99.90;;;7.91;100.00;96971.16;4987629;28;20095;-38
2022/09/17 05:15:00;;;;;;;7.47;1.50;;;8.60;99.90;;;7.93;100.00;96971.09;4985396;28;20376;-38
2022/09/17 05:17:25;;;;;;;4.53;1.55;;;8.60;99.90;;;7.94;100.00;96970.19;4988375;28;20042;-38
2022/09/17 05:19:52;;;;;;;12.18;2.00;;;8.60;99.90;;;7.90;100.00;96968.59;4987086;28;20449;-38
2022/09/17 05:22:18;;;;;;;4.82;1.55;;;8.60;99.90;;;7.82;100.00;96974.09;4992285;28;20069;-38
2022/09/17 05:24:44;;;;;;;4.10;1.60;;;8.50;99.90;;;7.74;100.00;96971.72;4987763;28;20141;-38
2022/09/17 05:27:10;;;;;;;4.43;1.40;;;8.50;99.90;;;7.68;100.00;96974.56;4990543;28;20691;-38
2022/09/17 05:29:36;;;;;;;5.22;1.52;;;8.40;99.90;;;7.64;100.00;96984.28;4985022;28;20091;-38
2022/09/17 05:32:03;;;;;;;7.80;1.80;;;8.30;99.90;;;7.67;100.00;96980.69;4988258;28;20128;-38
2022/09/17 05:34:29;;;;;;;6.22;1.70;;;8.40;99.90;;;7.68;100.00;96985.06;4985589;28;20036;-38
2022/09/17 05:36:55;;;;;;;3.75;1.42;;;8.30;99.90;;;7.51;100.00;96953.22;4991106;28;20490;-38
2022/09/17 05:39:24;;;;;;;10.02;1.58;;;8.30;99.90;;;7.69;100.00;96976.25;4992452;28;20125;-37
2022/09/17 05:41:51;;;;;;;4.97;1.40;;;8.30;99.90;;;7.72;100.00;96986.66;4990326;28;20076;-38
2022/09/17 05:44:18;;;;;;;6.22;1.73;;;8.30;99.90;;;7.71;100.00;96984.94;4993787;28;20057;-37
2022/09/17 05:46:44;;;;;;;8.43;2.00;;;8.40;99.90;;;7.69;100.00;96989.38;4990842;28;20037;-38
2022/09/17 05:49:10;;;;;;;4.68;1.15;;;8.40;99.90;;;7.70;100.00;96984.97;4992356;28;21444;-38
2022/09/17 05:51:36;;;;;;;6.35;1.88;;;8.40;99.90;;;7.73;100.00;96984.88;4995435;28;20364;-38
2022/09/17 05:54:01;;;;;;;7.35;1.52;;;8.40;99.90;;;7.76;100.00;96985.66;4991748;28;20061;-38
2022/09/17 05:56:27;;;;;;;8.82;1.67;;;8.40;99.90;;;7.83;100.00;96992.41;4991832;28;20053;-37
2022/09/17 05:58:56;;;;;;;2.88;1.23;;;8.50;99.90;;;7.97;100.00;97006.88;4988647;28;20701;-38
2022/09/17 06:01:23;;;;;;;4.13;1.13;;;8.60;99.90;;;8.12;100.00;97000.25;4992057;28;20029;-38
2022/09/17 06:03:48;;;;;;;5.97;1.58;;;8.70;99.90;;;8.19;100.00;97012.25;4987647;28;20037;-38
2022/09/17 06:06:14;;;;;;;5.53;1.88;;;8.80;99.90;;;8.33;100.00;97009.19;4985896;28;20872;-38
2022/09/17 06:08:40;;;;;;;6.90;1.60;;;8.90;99.90;;;8.40;100.00;97013.31;4990417;28;20051;-38
2022/09/17 06:11:07;;;;;;;5.18;1.40;;;9.00;99.90;;;8.47;100.00;97006.09;4986942;28;20041;-38
2022/09/17 06:13:33;;;;;;;5.63;1.40;;;9.20;99.90;;;8.64;100.00;97022.13;4987794;28;20095;-38
2022/09/17 06:16:01;;;;;;;9.48;1.60;;;9.30;99.90;;;8.73;100.00;97021.78;4983704;28;20870;-38
2022/09/17 06:18:29;;;;;;;6.75;1.90;;;9.40;99.90;;;8.78;100.00;97022.50;4982351;28;20038;-38
2022/09/17 06:21:00;;;;;;;9.07;1.30;;;9.50;99.90;;;8.86;100.00;97016.09;5000872;28;20029;-38
2022/09/17 06:23:27;;;;;;;4.55;1.27;;;9.50;99.90;;;8.88;100.00;97020.41;4986330;28;20121;-38
2022/09/17 06:26:00;;;;;;;3.50;1.55;;;9.50;99.90;;;8.85;100.00;97012.63;4984458;28;20179;-38
2022/09/17 06:28:27;;;;;;;7.97;1.70;;;9.50;99.90;;;8.91;100.00;97030.78;4984688;28;20414;-38
2022/09/17 06:30:54;;;;;;;4.45;1.20;;;9.60;99.90;;;8.95;100.00;97021.91;4981106;28;20268;-38
2022/09/17 06:33:21;;;;;;;7.45;1.80;;;9.60;99.90;;;9.08;100.00;97035.47;4977116;28;20163;-38
2022/09/17 06:35:47;;;;;;;3.83;1.50;;;9.70;99.90;;;9.09;100.00;97026.63;4990935;28;20029;-38
2022/09/17 06:38:12;;;;;;;9.38;1.75;;;9.80;99.90;;;9.17;100.00;97031.63;4983786;28;20042;-38
2022/09/17 06:40:38;;;;;;;8.73;1.58;;;9.90;99.90;;;9.31;100.00;97033.72;4982387;28;20052;-38
2022/09/17 06:43:04;;;;;;;8.73;1.55;;;10.00;99.90;;;9.36;100.00;97024.75;4978967;28;20050;-38
2022/09/17 06:45:30;;;;;;;3.65;1.35;;;10.10;99.90;;;9.48;100.00;97035.72;4982455;28;20041;-38
2022/09/17 06:47:56;;;;;;;3.35;1.48;;;10.20;99.90;;;9.48;100.00;97039.22;4990913;28;20029;-38
2022/09/17 06:50:21;;;;;;;7.25;1.42;;;10.20;99.90;;;9.55;100.00;97040.69;4986853;28;20367;-38
2022/09/17 06:52:53;;;;;;;6.40;1.63;;;10.30;99.90;;;9.69;100.00;97044.56;4981683;28;20981;-38
2022/09/17 06:55:19;;;;;;;8.20;1.50;;;10.40;99.90;;;9.77;100.00;97050.41;4985201;28;20479;-38
2022/09/17 06:57:46;;;;;;;8.07;1.92;;;10.50;99.90;;;9.80;100.00;97044.13;4990678;28;20042;-38
2022/09/17 07:00:13;;;;;;;5.30;1.75;;;10.50;99.90;;;9.64;100.00;97010.53;4982661;28;20061;-38
2022/09/17 07:02:39;;;;;;;3.97;1.27;;;10.50;99.90;;;9.87;100.00;97042.97;4983959;28;20040;-38
2022/09/17 07:05:05;;;;;;;6.78;1.42;;;10.60;99.90;;;9.93;100.00;97048.88;4981633;28;20604;-38
2022/09/17 07:07:31;;;;;;;5.38;1.23;;;10.60;99.90;;;9.84;100.00;97054.50;4979239;28;20069;-38
2022/09/17 07:09:57;;;;;;;3.55;1.27;;;10.60;99.90;;;9.80;100.00;97050.28;4982573;28;20034;-38
2022/09/17 07:12:22;;;;;;;3.90;1.30;;;10.50;99.90;;;9.61;100.00;97060.66;4985757;28;20144;-38
2022/09/17 07:14:48;;;;;;;3.20;1.38;;;10.40;99.90;;;9.28;100.00;97029.44;4974570;28;20026;-38
2022/09/17 07:19:42;;;;;;;4.18;1.30;;;10.00;99.90;;;9.24;100.00;97063.81;5042162;28;20076;-49
2022/09/17 07:22:07;;;;;;;5.57;1.50;;;10.00;99.90;;;9.08;100.00;97064.41;5038692;28;20032;-46
2022/09/17 07:24:33;;;;;;;5.47;1.83;;;9.90;99.90;;;9.09;100.00;97062.63;5038995;28;20032;-50
2022/09/17 07:27:00;;;;;;;6.70;1.70;;;9.80;99.90;;;9.05;100.00;97067.13;5056749;28;20853;-50
2022/09/17 07:29:26;;;;;;;3.53;1.38;;;9.80;99.90;;;8.97;100.00;97071.78;5035192;28;20024;-45
2022/09/17 07:31:53;;;;;;;5.55;1.60;;;9.70;99.90;;;8.94;100.00;97072.78;5052120;28;20121;-51
2022/09/17 07:34:20;;;;;;;6.85;2.08;;;9.60;99.90;;;8.81;100.00;97075.88;5051711;28;20116;-48
2022/09/17 07:36:45;;;;;;;7.28;1.60;;;9.50;99.90;;;8.77;100.00;97075.13;5042809;28;20029;-50
2022/09/17 07:39:14;;;;;;;4.57;2.00;;;9.50;99.90;;;8.82;100.00;97075.84;5049995;28;20024;-50
2022/09/17 07:41:40;;;;;;;3.55;1.65;;;9.50;99.90;;;8.67;100.00;97076.34;5046087;28;20165;-51
2022/09/17 07:44:06;;;;;;;3.50;1.48;;;9.40;99.90;;;8.62;100.00;97083.56;5023880;28;20024;-46
2022/09/17 07:46:32;;;;;;;6.43;1.65;;;9.30;99.90;;;8.64;100.00;97079.97;5040037;28;20543;-51
2022/09/17 07:48:59;;;;;;;3.22;1.40;;;9.30;99.90;;;8.54;100.00;97083.81;5039778;28;20189;-48
2022/09/17 07:51:28;;;;;;;3.17;1.63;;;9.30;99.90;;;8.48;100.00;97073.50;5042485;28;20182;-51
2022/09/17 07:53:57;;;;;;;4.50;1.90;;;9.20;99.90;;;8.53;100.00;97082.94;5051215;28;20128;-51
2022/09/17 07:56:24;;;;;;;8.25;2.25;;;9.20;99.90;;;8.55;100.00;97091.63;5044416;28;20108;-51
2022/09/17 07:58:50;;;;;;;6.15;1.77;;;9.20;99.90;;;8.62;100.00;97088.81;5049971;28;20048;-47
2022/09/17 08:01:17;;;;;;;4.18;1.90;;;9.30;99.90;;;8.97;100.00;97101.59;5050059;28;20041;-49
2022/09/17 08:03:50;;;;;;;4.72;1.88;;;9.60;99.90;;;9.14;100.00;97095.72;5043434;28;20363;-49
2022/09/17 08:06:20;;;;;;;4.68;1.80;;;9.80;99.90;;;9.31;100.00;97105.66;5045699;28;20039;-48
2022/09/17 08:08:47;;;;;;;3.90;1.60;;;10.00;99.90;;;9.33;100.00;97109.09;5047998;28;20028;-48
2022/09/17 08:11:17;;;;;;;5.40;1.80;;;10.00;99.90;;;9.19;100.00;97114.00;5049985;28;20035;-49
2022/09/17 08:13:47;;;;;;;3.55;1.50;;;9.90;99.90;;;9.27;100.00;97106.66;5038104;28;20119;-48
2022/09/17 08:16:12;;;;;;;5.72;2.15;;;10.00;99.90;;;9.22;100.00;97113.84;5046146;28;21095;-50
2022/09/17 08:18:39;;;;;;;3.42;1.60;;;9.90;99.90;;;9.22;100.00;97111.22;5046332;28;20035;-50
2022/09/17 08:21:09;;;;;;;5.05;1.75;;;10.00;99.90;;;9.32;100.00;97110.00;5046473;28;20393;-50
2022/09/17 08:23:37;;;;;;;6.10;1.92;;;10.00;99.90;;;9.35;100.00;97111.66;5047564;28;20059;-50
2022/09/17 08:26:05;;;;;;;4.00;1.95;;;10.10;99.90;;;9.36;100.00;97110.72;5052377;28;20033;-50
2022/09/17 08:28:31;;;;;;;5.22;1.65;;;10.20;99.90;;;9.58;100.00;97112.56;5042384;28;20032;-52
2022/09/17 08:31:05;;;;;;;5.63;2.25;;;10.30;99.90;;;9.84;100.00;97103.69;5045163;28;20517;-51
2022/09/17 08:33:39;;;;;;;4.78;1.80;;;10.60;99.90;;;10.04;100.00;97108.19;5040265;28;20074;-50
2022/09/17 08:36:07;;;;;;;4.75;2.05;;;10.70;99.90;;;10.03;100.00;97103.81;5051191;28;20031;-50
2022/09/17 08:38:36;;;;;;;4.40;1.88;;;10.80;99.90;;;9.99;100.00;97110.97;5046762;28;20058;-49
2022/09/17 08:41:25;;;;;;;6.03;1.83;;;10.90;99.90;;;10.12;100.00;97113.97;5049677;28;20110;-50
2022/09/17 08:44:06;;;;;;;4.57;1.90;;;10.90;99.90;;;10.33;100.00;97109.66;5044520;28;20033;-50
2022/09/17 08:46:42;;;;;;;6.70;2.33;;;11.10;99.90;;;10.50;100.00;97101.94;5045473;28;20498;-49
2022/09/17 08:49:52;;;;;;;6.20;2.03;;;11.20;99.90;;;10.65;100.00;97116.25;5048503;28;21353;-49
2022/09/17 08:52:57;;;;;;;7.43;1.90;;;11.30;99.90;;;10.42;100.00;97075.03;5044315;28;20033;-49
2022/09/17 08:55:42;;;;;;;9.65;2.22;;;11.30;99.90;;;10.57;100.00;97113.09;5026534;28;20091;-47
2022/09/17 08:58:39;;;;;;;9.35;2.10;;;11.30;99.90;;;10.50;100.00;97117.75;5033430;28;20066;-48
2022/09/17 09:01:24;;;;;;;7.18;2.05;;;11.30;99.90;;;10.76;100.00;97118.44;5031397;28;20051;-49
2022/09/17 09:04:37;;;;;;;7.00;2.10;;;11.50;99.90;;;11.14;100.00;97123.84;5042645;28;20040;-49
2022/09/17 09:07:12;;;;;;;7.38;2.17;;;11.80;99.90;;;11.33;100.00;97112.50;4975662;28;20033;-50
2022/09/17 09:09:49;;;;;;;7.72;2.00;;;12.00;99.90;;;11.58;100.00;97125.47;4979043;28;20561;-50
2022/09/17 09:12:25;;;;;;;11.65;1.90;;;12.30;99.90;;;11.62;100.00;97125.22;5008459;28;20101;-49
2022/09/17 09:15:07;;;;;;;12.73;2.15;;;12.40;99.90;;;11.57;100.00;97129.00;5025369;28;20909;-50
2022/09/17 09:17:45;;;;;;;10.80;2.13;;;12.40;99.90;;;11.72;100.00;97123.03;5049730;28;20287;-51
2022/09/17 09:20:54;;;;;;;8.65;2.10;;;12.40;99.90;;;11.57;100.00;97116.66;5047546;28;20070;-50
2022/09/17 09:23:33;;;;;;;8.20;2.20;;;12.40;99.90;;;11.56;100.00;97125.53;5036744;28;20194;-51
2022/09/17 09:26:21;;;;;;;5.90;1.63;;;12.30;99.90;;;11.53;100.00;97133.56;5036389;28;20073;-50
2022/09/17 09:29:16;;;;;;;10.70;2.13;;;12.30;99.90;;;11.44;100.00;97124.28;5055175;28;20036;-50
2022/09/17 09:32:07;;;;;;;10.90;1.98;;;12.10;99.90;;;11.32;100.00;97129.25;5047475;28;20051;-50
2022/09/17 09:34:34;;;;;;;6.30;1.92;;;12.00;99.90;;;11.37;100.00;97124.63;5048942;28;20413;-49
2022/09/17 09:37:16;;;;;;;9.10;1.92;;;12.00;99.90;;;11.42;100.00;97120.84;5032136;28;20990;-50
2022/09/17 09:39:44;;;;;;;3.75;1.50;;;12.10;99.90;;;11.70;100.00;97113.47;5050195;28;20029;-49
2022/09/17 09:42:30;;;;;;;8.98;2.20;;;12.40;99.90;;;11.74;100.00;97100.06;5048385;28;20144;-49
2022/09/17 09:44:59;;;;;;;11.68;2.20;;;12.60;99.90;;;12.12;100.00;97118.56;5028828;28;20039;-49
2022/09/17 09:47:59;;;;;;;9.52;1.90;;;12.70;99.90;;;12.01;100.00;97120.88;5038065;28;20123;-50
2022/09/17 09:50:36;;;;;;;6.35;1.95;;;12.80;99.90;;;11.91;100.00;97120.41;5044262;28;20048;-49
2022/09/17 09:53:27;;;;;;;8.43;2.28;;;12.60;99.90;;;11.77;100.00;97114.88;5055365;28;20028;-50
2022/09/17 09:56:19;;;;;;;9.30;2.13;;;12.50;99.90;;;11.68;100.00;97124.09;5048732;28;20039;-50
2022/09/17 09:58:45;;;;;;;11.20;2.20;;;12.40;99.90;;;11.46;100.00;97118.94;5039243;28;20048;-50
2022/09/17 10:01:19;;;;;;;5.50;1.58;;;12.20;99.90;;;11.15;100.00;97122.94;5052619;28;20656;-51
2022/09/17 10:03:47;;;;;;;7.85;2.00;;;12.00;99.90;;;11.22;100.00;97116.47;5058837;28;20109;-50
2022/09/17 10:06:15;;;;;;;7.78;1.95;;;12.00;99.90;;;11.35;100.00;97121.22;5047776;28;20028;-48
2022/09/17 10:08:53;;;;;;;7.03;1.70;;;12.10;99.90;;;11.79;100.00;97123.59;5030785;28;21179;-50
2022/09/17 10:11:24;;;;;;;11.15;2.17;;;12.40;99.90;;;12.04;100.00;97118.06;5056654;28;20366;-50
2022/09/17 10:13:50;;;;;;;11.73;1.80;;;12.70;99.90;;;12.17;100.00;97113.06;5060680;28;20063;-50
2022/09/17 10:16:25;;;;;;;6.43;1.50;;;13.00;99.90;;;12.45;100.00;97122.28;5040213;28;20021;-49
2022/09/17 10:19:17;;;;;;;6.03;1.70;;;13.20;99.90;;;12.43;100.00;97119.72;5035426;28;20090;-51
2022/09/17 10:21:43;;;;;;;4.85;1.80;;;13.20;99.90;;;12.54;96.13;97119.19;5055957;28;20047;-48
2022/09/17 10:24:30;;;;;;;6.78;1.67;;;13.20;99.90;;;12.22;90.74;97113.69;5037821;28;21152;-48
2022/09/17 10:27:12;;;;;;;6.15;1.83;;;13.10;99.90;;;12.56;100.00;97114.69;5058354;28;20070;-50
2022/09/17 10:29:44;;;;;;;5.93;1.65;;;13.30;99.90;;;12.73;93.12;97113.84;5037880;28;20029;-50
2022/09/17 10:32:20;;;;;;;8.60;1.35;;;13.60;99.90;;;12.83;100.00;97120.41;5028756;28;20079;-50
2022/09/17 10:35:04;;;;;;;5.60;1.58;;;13.60;99.90;;;12.95;100.00;97118.91;5059223;28;20025;-48
2022/09/17 10:37:47;;;;;;;6.38;1.45;;;13.60;99.90;;;12.89;93.30;97113.94;5050181;28;20047;-50
2022/09/17 10:40:24;;;;;;;9.35;1.38;;;13.60;99.90;;;12.59;94.82;97111.88;5055772;28;20447;-47
2022/09/17 10:43:13;;;;;;;4.40;1.17;;;13.40;99.90;;;12.44;91.71;97104.72;5055860;28;20134;-50
2022/09/17 10:45:43;;;;;;;5.00;1.58;;;13.20;99.90;;;12.53;100.00;97098.97;5051596;28;20025;-52
2022/09/17 10:48:19;;;;;;;7.07;1.40;;;13.20;99.90;;;12.63;92.75;97107.31;5057068;28;20067;-48
2022/09/17 10:50:51;;;;;;;4.40;1.50;;;13.50;99.90;;;12.98;90.03;97111.66;5059647;28;20041;-50
2022/09/17 10:53:19;;;;;;;5.53;1.75;;;13.80;99.90;;;13.22;83.68;97110.50;5038208;28;20101;-50